Time;durP1;ratioP1;P1;durP2;ratioP2;P2;SDS_P1;SDS_P2;PMS_P1;PMS_P2;Temp;Humidity;BMP_temperature;BMP_pressure;BME280_temperature;BME280_humidity;BME280_pressure;Samples;Min_cycle;Max_cycle;Signal;HPM_P1;HPM_P2
2022/09/25 00:00:35;;;;;;;12.40;11.40;;;14.00;99.90;;;;;;5050003;28;20211;-74
2022/09/25 00:03:01;;;;;;;11.83;10.77;;;14.00;99.90;;;;;;5050324;28;20579;-74
2022/09/25 00:05:28;;;;;;;11.63;10.63;;;14.00;99.90;;;;;;5029722;28;20201;-71
2022/09/25 00:07:55;;;;;;;11.27;10.37;;;14.00;99.90;;;;;;5030073;28;20209;-71
2022/09/25 00:10:24;;;;;;;11.17;9.87;;;14.00;99.90;;;;;;5029561;28;20675;-71
2022/09/25 00:12:52;;;;;;;11.67;10.57;;;14.00;99.90;;;;;;5029727;28;20306;-72
2022/09/25 00:15:18;;;;;;;10.90;10.00;;;14.00;99.90;;;;;;5042452;28;20208;-71
2022/09/25 00:17:45;;;;;;;10.17;9.33;;;14.00;99.90;;;;;;5049774;28;20208;-71
2022/09/25 00:20:11;;;;;;;10.20;9.30;;;14.00;99.90;;;;;;5049463;28;20674;-71
2022/09/25 00:22:38;;;;;;;10.60;9.80;;;13.90;99.90;;;;;;5049528;28;20231;-71
2022/09/25 00:25:05;;;;;;;10.43;9.57;;;13.90;99.90;;;;;;5060258;28;20235;-71
2022/09/25 00:27:32;;;;;;;9.63;8.83;;;13.90;99.90;;;;;;5039935;28;20791;-71
2022/09/25 00:30:00;;;;;;;9.83;8.93;;;13.90;99.90;;;;;;5047396;28;20460;-71
2022/09/25 00:32:27;;;;;;;10.33;9.53;;;13.80;99.90;;;;;;5041106;28;20217;-71
2022/09/25 00:34:54;;;;;;;9.93;9.07;;;13.80;99.90;;;;;;5049647;28;20208;-72
2022/09/25 00:37:21;;;;;;;9.50;8.80;;;13.80;99.90;;;;;;5049223;28;20215;-74
2022/09/25 00:39:47;;;;;;;9.37;8.67;;;13.80;99.90;;;;;;5048911;28;20228;-74
2022/09/25 00:42:14;;;;;;;9.10;8.40;;;13.80;99.90;;;;;;5048633;28;20259;-75
2022/09/25 00:44:55;;;;;;;10.37;9.37;;;13.80;99.90;;;;;;5049235;28;20294;-74
2022/09/25 00:47:30;;;;;;;9.73;8.80;;;13.80;99.90;;;;;;5049715;28;20262;-74
2022/09/25 00:50:00;;;;;;;10.10;9.20;;;13.80;99.90;;;;;;5049371;28;20207;-74
2022/09/25 00:52:29;;;;;;;9.53;8.73;;;13.80;99.90;;;;;;5049332;28;20193;-72
2022/09/25 00:55:00;;;;;;;9.47;8.67;;;13.80;99.90;;;;;;5057944;28;20207;-72
2022/09/25 00:57:31;;;;;;;9.67;8.87;;;13.80;99.90;;;;;;5056733;28;20576;-73
2022/09/25 01:00:01;;;;;;;10.37;9.37;;;13.80;99.90;;;;;;5048943;28;20189;-73
2022/09/25 01:02:32;;;;;;;10.33;9.53;;;13.70;99.90;;;;;;5049108;28;20219;-73
2022/09/25 01:05:02;;;;;;;9.50;8.80;;;13.70;99.90;;;;;;5049024;28;20203;-73
2022/09/25 01:07:30;;;;;;;10.67;9.77;;;13.70;99.90;;;;;;5048095;28;20654;-73
2022/09/25 01:09:58;;;;;;;9.70;8.90;;;13.80;99.90;;;;;;5048398;28;20200;-73
2022/09/25 01:12:25;;;;;;;10.20;9.40;;;13.80;99.90;;;;;;5048504;28;20212;-72
2022/09/25 01:14:52;;;;;;;10.10;9.30;;;13.80;99.90;;;;;;5048553;28;20273;-72
2022/09/25 01:17:25;;;;;;;9.77;8.90;;;13.70;99.90;;;;;;5048696;28;20204;-72
2022/09/25 01:20:03;;;;;;;9.13;8.43;;;13.80;99.90;;;;;;5029107;28;20193;-72
2022/09/25 01:22:44;;;;;;;9.17;8.30;;;13.80;99.90;;;;;;5028564;28;20220;-71
2022/09/25 01:25:23;;;;;;;8.50;7.90;;;13.80;99.90;;;;;;5037539;28;20216;-71
2022/09/25 01:28:16;;;;;;;8.50;7.83;;;13.80;99.90;;;;;;5048574;28;20207;-71
2022/09/25 01:30:49;;;;;;;7.50;7.00;;;13.80;99.90;;;;;;5046933;28;20188;-72
2022/09/25 01:33:21;;;;;;;7.70;7.20;;;13.80;99.90;;;;;;5047064;28;20203;-71
2022/09/25 01:35:53;;;;;;;8.30;7.70;;;13.80;99.90;;;;;;5028304;28;20208;-71
2022/09/25 01:38:30;;;;;;;7.47;6.87;;;13.80;99.90;;;;;;5029842;28;20201;-71
2022/09/25 01:41:04;;;;;;;6.90;6.40;;;13.80;99.90;;;;;;5048339;28;20199;-71
2022/09/25 01:43:35;;;;;;;8.30;7.60;;;13.80;99.90;;;;;;5028668;28;20235;-71
2022/09/25 01:46:11;;;;;;;7.40;6.83;;;13.80;99.90;;;;;;5028351;28;20240;-71
2022/09/25 01:48:41;;;;;;;7.63;7.03;;;13.80;99.90;;;;;;5032752;28;20192;-71
2022/09/25 01:51:13;;;;;;;7.30;6.80;;;13.80;99.90;;;;;;5048068;28;20208;-70
2022/09/25 01:53:44;;;;;;;7.40;6.80;;;13.80;99.90;;;;;;5042932;28;20205;-71
2022/09/25 01:56:17;;;;;;;7.17;6.63;;;13.80;99.90;;;;;;5056061;28;20199;-71
2022/09/25 01:58:51;;;;;;;7.00;6.40;;;13.80;99.90;;;;;;5048066;28;20196;-71
2022/09/25 02:01:23;;;;;;;6.27;5.87;;;13.80;99.90;;;;;;5047883;28;20635;-70
2022/09/25 02:03:56;;;;;;;6.53;6.10;;;13.80;99.90;;;;;;5047402;28;20224;-71
2022/09/25 02:06:24;;;;;;;6.43;5.93;;;13.80;99.90;;;;;;5036318;28;20212;-73
2022/09/25 02:08:54;;;;;;;7.23;6.73;;;13.80;99.90;;;;;;5048156;28;20204;-72
2022/09/25 02:11:21;;;;;;;7.07;6.50;;;13.80;99.90;;;;;;5047815;28;20207;-73
2022/09/25 02:13:54;;;;;;;6.97;6.37;;;13.80;99.90;;;;;;5048073;28;20254;-73
2022/09/25 02:16:26;;;;;;;7.40;6.80;;;13.80;99.90;;;;;;5048104;28;20200;-73
2022/09/25 02:21:47;;;;;;;8.53;6.20;;;13.80;99.90;;;;;;5037960;28;20405;-72
2022/09/25 02:24:19;;;;;;;6.73;6.23;;;13.80;99.90;;;;;;5047389;28;20259;-72
2022/09/25 02:26:45;;;;;;;6.77;6.27;;;13.80;99.90;;;;;;5047429;28;20199;-72
2022/09/25 02:29:13;;;;;;;6.50;6.00;;;13.80;99.90;;;;;;5047200;28;20223;-74
2022/09/25 02:31:45;;;;;;;6.30;5.80;;;13.80;99.90;;;;;;5047521;28;20291;-74
2022/09/25 02:34:12;;;;;;;6.10;5.60;;;13.80;99.90;;;;;;5047459;28;20203;-73
2022/09/25 02:36:39;;;;;;;6.13;5.73;;;13.80;99.90;;;;;;5047336;28;20208;-73
2022/09/25 02:39:09;;;;;;;6.37;5.90;;;13.80;99.90;;;;;;5047392;28;20204;-73
2022/09/25 02:41:50;;;;;;;6.40;5.80;;;13.70;99.90;;;;;;5036832;28;20243;-73
2022/09/25 02:44:30;;;;;;;6.20;5.70;;;13.80;99.90;;;;;;5028685;28;20630;-73
2022/09/25 02:47:11;;;;;;;6.17;5.77;;;13.70;99.90;;;;;;5047687;28;20192;-74
2022/09/25 02:49:47;;;;;;;5.97;5.57;;;13.70;99.90;;;;;;5046502;28;20196;-73
2022/09/25 02:52:19;;;;;;;6.00;5.60;;;13.70;99.90;;;;;;5047461;28;20223;-74
2022/09/25 02:54:50;;;;;;;6.00;5.50;;;13.70;99.90;;;;;;5046553;28;20604;-73
2022/09/25 02:57:25;;;;;;;5.83;5.37;;;13.70;99.90;;;;;;5047233;28;20200;-73
2022/09/25 02:59:56;;;;;;;5.63;5.23;;;13.70;99.90;;;;;;5047251;28;20698;-73
2022/09/25 03:02:27;;;;;;;5.33;5.03;;;13.70;99.90;;;;;;5047360;28;20196;-75
2022/09/25 03:04:55;;;;;;;5.87;5.47;;;13.70;99.90;;;;;;5046822;28;20230;-72
2022/09/25 03:07:22;;;;;;;5.27;4.97;;;13.70;99.90;;;;;;5044954;28;20208;-72
2022/09/25 03:09:51;;;;;;;5.30;5.00;;;13.80;99.90;;;;;;5047067;28;20204;-73
2022/09/25 03:12:18;;;;;;;5.50;5.00;;;13.80;99.90;;;;;;5046960;28;20204;-71
2022/09/25 03:14:45;;;;;;;5.10;4.70;;;13.80;99.90;;;;;;5046986;28;20211;-71
2022/09/25 03:17:14;;;;;;;5.37;5.00;;;13.80;99.90;;;;;;5045025;28;20215;-71
2022/09/25 03:19:42;;;;;;;5.70;5.20;;;13.70;99.90;;;;;;5027034;28;20223;-72
2022/09/25 03:22:10;;;;;;;5.10;4.80;;;13.80;99.90;;;;;;5027404;28;20217;-71
2022/09/25 03:24:37;;;;;;;5.63;5.23;;;13.80;99.90;;;;;;5041736;28;20255;-72
2022/09/25 03:27:04;;;;;;;5.60;5.20;;;13.70;99.90;;;;;;5054834;28;20204;-73
2022/09/25 03:29:31;;;;;;;5.17;4.83;;;13.70;99.90;;;;;;5038763;28;20209;-72
2022/09/25 03:31:58;;;;;;;4.77;4.30;;;13.70;99.90;;;;;;5037380;28;20305;-72
2022/09/25 03:34:24;;;;;;;5.50;5.20;;;13.70;99.90;;;;;;5047168;28;20216;-73
2022/09/25 03:36:53;;;;;;;5.13;4.73;;;13.60;99.90;;;;;;5046956;28;20212;-73
2022/09/25 03:39:19;;;;;;;4.90;4.60;;;13.60;99.90;;;;;;5046733;28;20208;-74
2022/09/25 03:41:46;;;;;;;4.87;4.50;;;13.60;99.90;;;;;;5036501;28;20702;-74
2022/09/25 03:44:13;;;;;;;6.70;4.43;;;13.60;99.90;;;;;;5027281;28;20228;-73
2022/09/25 03:46:40;;;;;;;5.53;5.03;;;13.60;99.90;;;;;;5042560;28;20302;-74
2022/09/25 03:49:09;;;;;;;5.07;4.67;;;13.60;99.90;;;;;;5046807;28;20204;-74
2022/09/25 03:51:37;;;;;;;5.40;5.00;;;13.60;99.90;;;;;;5046727;28;20235;-74
2022/09/25 03:54:05;;;;;;;5.70;5.13;;;13.60;99.90;;;;;;5046058;28;20683;-74
2022/09/25 03:56:32;;;;;;;5.27;4.90;;;13.50;99.90;;;;;;5046328;28;20220;-74
2022/09/25 03:58:59;;;;;;;5.13;4.70;;;13.60;99.90;;;;;;5046656;28;20211;-74
2022/09/25 04:01:27;;;;;;;5.10;4.80;;;13.60;99.90;;;;;;5048449;28;20291;-74
2022/09/25 04:03:54;;;;;;;5.50;5.10;;;13.60;99.90;;;;;;5049884;28;20239;-74
2022/09/25 04:06:23;;;;;;;5.10;4.60;;;13.60;99.90;;;;;;5050022;28;20211;-73
2022/09/25 04:08:51;;;;;;;5.30;4.90;;;13.50;99.90;;;;;;5050344;28;20204;-73
2022/09/25 04:11:21;;;;;;;5.13;4.63;;;13.50;99.90;;;;;;5050246;28;20727;-73
2022/09/25 04:13:48;;;;;;;5.80;5.40;;;13.50;99.90;;;;;;5049757;28;20244;-72
2022/09/25 04:16:18;;;;;;;5.20;4.80;;;13.50;99.90;;;;;;5050075;28;20200;-73
2022/09/25 04:18:45;;;;;;;5.60;5.20;;;13.50;99.90;;;;;;5049791;28;20670;-73
2022/09/25 04:21:13;;;;;;;5.37;5.00;;;13.50;99.90;;;;;;5050114;28;20211;-73
2022/09/25 04:23:41;;;;;;;5.70;5.30;;;13.50;99.90;;;;;;5034660;28;20245;-73
2022/09/25 04:26:08;;;;;;;6.70;5.93;;;13.50;99.90;;;;;;5059613;28;20200;-73
2022/09/25 04:28:37;;;;;;;6.30;5.10;;;13.40;99.90;;;;;;5043619;28;20215;-73
2022/09/25 04:31:04;;;;;;;5.57;5.07;;;13.40;99.90;;;;;;5036134;28;20201;-74
2022/09/25 04:33:45;;;;;;;5.97;5.23;;;13.40;99.90;;;;;;5029964;28;20572;-74
2022/09/25 04:36:12;;;;;;;6.00;5.50;;;13.40;99.90;;;;;;5029954;28;20201;-74
2022/09/25 04:38:39;;;;;;;5.60;5.10;;;13.30;99.90;;;;;;5032631;28;20211;-73
2022/09/25 04:41:07;;;;;;;5.37;4.97;;;13.40;99.90;;;;;;5049699;28;20200;-72
2022/09/25 04:43:34;;;;;;;5.90;5.40;;;13.40;99.90;;;;;;5049722;28;20224;-72
2022/09/25 04:46:03;;;;;;;5.63;5.23;;;13.40;99.90;;;;;;5049660;28;20266;-72
2022/09/25 04:48:30;;;;;;;5.30;4.90;;;13.30;99.90;;;;;;5047409;28;20204;-72
2022/09/25 04:50:57;;;;;;;6.13;5.63;;;13.30;99.90;;;;;;5036041;28;20587;-72
2022/09/25 04:53:24;;;;;;;5.57;5.07;;;13.30;99.90;;;;;;5029629;28;20576;-72
2022/09/25 04:55:53;;;;;;;6.47;5.10;;;13.30;99.90;;;;;;5046699;28;20212;-72
2022/09/25 04:58:20;;;;;;;5.63;5.13;;;13.30;99.90;;;;;;5049248;28;20204;-72
2022/09/25 05:00:47;;;;;;;5.67;5.17;;;13.30;99.90;;;;;;5049146;28;20204;-72
2022/09/25 05:03:15;;;;;;;5.50;5.07;;;13.20;99.90;;;;;;5049117;28;20295;-72
2022/09/25 05:05:42;;;;;;;5.57;5.10;;;13.30;99.90;;;;;;5049032;28;20210;-72
2022/09/25 05:08:10;;;;;;;5.70;5.30;;;13.30;99.90;;;;;;5048954;28;20212;-72
2022/09/25 05:10:39;;;;;;;6.00;5.50;;;13.30;99.90;;;;;;5048561;28;20321;-72
2022/09/25 05:13:07;;;;;;;5.67;5.27;;;13.30;99.90;;;;;;5048414;28;20216;-72
2022/09/25 05:15:35;;;;;;;6.37;5.80;;;13.20;99.90;;;;;;5048687;28;20892;-72
2022/09/25 05:18:03;;;;;;;6.43;5.93;;;13.30;99.90;;;;;;5049013;28;20239;-72
2022/09/25 05:20:31;;;;;;;6.40;5.80;;;13.20;99.90;;;;;;5048104;28;20212;-72
2022/09/25 05:23:00;;;;;;;6.03;5.53;;;13.20;99.90;;;;;;5048642;28;20211;-72
2022/09/25 05:25:27;;;;;;;6.70;5.23;;;13.20;99.90;;;;;;5059964;28;20269;-72
2022/09/25 05:27:57;;;;;;;6.10;5.60;;;13.20;99.90;;;;;;5068921;28;20214;-72
2022/09/25 05:30:24;;;;;;;6.20;5.50;;;13.20;99.90;;;;;;5057653;28;20235;-72
2022/09/25 05:32:52;;;;;;;6.00;5.50;;;13.20;99.90;;;;;;5028579;28;20213;-72
2022/09/25 05:35:21;;;;;;;6.00;5.60;;;13.20;99.90;;;;;;5028670;28;20209;-72
2022/09/25 05:37:50;;;;;;;6.77;6.20;;;13.20;99.90;;;;;;5032972;28;20211;-72
2022/09/25 05:40:19;;;;;;;6.67;6.17;;;13.10;99.90;;;;;;5048196;28;20215;-72
2022/09/25 05:42:47;;;;;;;7.00;5.70;;;13.10;99.90;;;;;;5048453;28;20208;-72
2022/09/25 05:45:14;;;;;;;5.77;5.33;;;13.20;99.90;;;;;;5048087;28;20223;-71
2022/09/25 05:47:42;;;;;;;6.00;5.60;;;13.20;99.90;;;;;;5048018;28;20204;-71
2022/09/25 05:50:10;;;;;;;6.70;6.10;;;13.20;99.90;;;;;;5048173;28;20215;-71
2022/09/25 05:52:38;;;;;;;5.67;5.27;;;13.20;99.90;;;;;;5047964;28;20204;-71
2022/09/25 05:55:07;;;;;;;6.90;6.20;;;13.20;99.90;;;;;;5059598;28;20207;-71
2022/09/25 05:57:35;;;;;;;6.73;5.73;;;13.30;99.90;;;;;;5067523;28;20214;-71
2022/09/25 06:00:03;;;;;;;8.37;5.70;;;13.30;99.90;;;;;;5053249;28;20200;-72
2022/09/25 06:02:30;;;;;;;6.20;5.70;;;13.30;99.90;;;;;;5047782;28;20204;-73
2022/09/25 06:04:56;;;;;;;5.80;5.30;;;13.40;99.90;;;;;;5048315;28;20227;-72
2022/09/25 06:07:23;;;;;;;6.33;5.93;;;13.40;99.90;;;;;;5047986;28;20208;-71
2022/09/25 06:09:50;;;;;;;6.40;5.90;;;13.40;99.90;;;;;;5047474;28;20213;-72
2022/09/25 06:12:18;;;;;;;6.60;6.10;;;13.40;99.90;;;;;;5047779;28;20215;-71
2022/09/25 06:14:45;;;;;;;6.00;5.57;;;13.40;99.90;;;;;;5044545;28;20205;-72
2022/09/25 06:17:12;;;;;;;6.50;6.00;;;13.40;99.90;;;;;;5027950;28;20224;-73
2022/09/25 06:19:39;;;;;;;6.40;5.87;;;13.50;99.90;;;;;;5029507;28;20216;-73
2022/09/25 06:22:05;;;;;;;6.50;6.00;;;13.50;99.90;;;;;;5034536;28;20205;-73
2022/09/25 06:24:32;;;;;;;7.30;5.93;;;13.50;99.90;;;;;;5040231;28;20247;-72
2022/09/25 06:26:59;;;;;;;7.40;5.77;;;13.60;99.90;;;;;;5067330;28;20700;-72
2022/09/25 06:29:27;;;;;;;6.40;5.90;;;13.60;99.90;;;;;;5051550;28;20227;-73
2022/09/25 06:31:54;;;;;;;6.30;5.80;;;13.60;99.90;;;;;;5047499;28;20212;-72
2022/09/25 06:34:21;;;;;;;5.67;5.27;;;13.60;99.90;;;;;;5039824;28;20223;-72
2022/09/25 06:36:48;;;;;;;6.90;6.27;;;13.70;99.90;;;;;;5044895;28;20698;-72
2022/09/25 06:39:15;;;;;;;6.10;5.60;;;13.70;99.90;;;;;;5037405;28;20227;-72
2022/09/25 06:41:42;;;;;;;6.77;6.27;;;13.70;99.90;;;;;;5044223;28;20205;-70
2022/09/25 06:44:09;;;;;;;6.47;5.83;;;13.70;99.90;;;;;;5035662;28;20220;-71
2022/09/25 06:46:37;;;;;;;6.47;5.90;;;13.70;99.90;;;;;;5036855;28;20192;-70
2022/09/25 06:49:04;;;;;;;7.03;6.30;;;13.70;99.90;;;;;;5037495;28;20200;-70
2022/09/25 06:51:35;;;;;;;6.33;5.90;;;13.80;99.90;;;;;;5045480;28;20211;-70
2022/09/25 06:54:02;;;;;;;6.83;6.30;;;13.80;99.90;;;;;;5045722;28;20208;-71
2022/09/25 06:56:29;;;;;;;7.47;6.40;;;13.80;99.90;;;;;;5039583;28;20201;-70
2022/09/25 06:58:56;;;;;;;6.77;6.13;;;13.80;99.90;;;;;;5033153;28;20201;-71
2022/09/25 07:01:23;;;;;;;6.50;6.00;;;13.90;99.90;;;;;;5037489;28;20620;-71
2022/09/25 07:03:50;;;;;;;7.10;6.50;;;13.90;99.90;;;;;;5042678;28;20203;-71
2022/09/25 07:06:19;;;;;;;7.13;6.63;;;13.90;99.90;;;;;;5045080;28;20208;-71
2022/09/25 07:08:47;;;;;;;7.53;6.83;;;14.00;99.90;;;;;;5040153;28;20295;-70
2022/09/25 07:11:16;;;;;;;6.50;6.00;;;14.00;99.90;;;;;;5044905;28;20207;-71
2022/09/25 07:13:43;;;;;;;6.90;6.40;;;14.00;99.90;;;;;;5045273;28;20228;-71
2022/09/25 07:16:13;;;;;;;7.00;6.50;;;14.00;99.90;;;;;;5045805;28;20208;-71
2022/09/25 07:18:40;;;;;;;7.20;6.57;;;14.00;99.90;;;;;;5045587;28;20212;-71
2022/09/25 07:21:10;;;;;;;6.97;6.47;;;14.00;99.90;;;;;;5038347;28;20235;-70
2022/09/25 07:23:37;;;;;;;6.97;6.47;;;14.00;99.90;;;;;;5039203;28;20239;-72
2022/09/25 07:26:06;;;;;;;6.87;6.37;;;14.00;99.90;;;;;;5054750;28;20242;-72
2022/09/25 07:28:33;;;;;;;6.97;6.37;;;14.00;99.90;;;;;;5047064;28;20212;-73
2022/09/25 07:31:10;;;;;;;7.37;6.77;;;14.00;99.90;;;;;;5047048;28;20204;-73
2022/09/25 07:33:37;;;;;;;6.97;6.37;;;14.00;99.90;;;;;;5034619;28;20220;-71
2022/09/25 07:36:04;;;;;;;6.87;6.30;;;14.10;99.90;;;;;;5029625;28;20269;-70
2022/09/25 07:38:33;;;;;;;6.53;6.03;;;14.20;99.90;;;;;;5030418;28;20212;-71
2022/09/25 07:40:59;;;;;;;7.30;6.53;;;14.20;99.90;;;;;;5030722;28;20213;-71
2022/09/25 07:43:26;;;;;;;6.80;6.20;;;14.20;99.90;;;;;;5047740;28;20554;-70
2022/09/25 07:45:53;;;;;;;7.80;7.10;;;14.20;99.90;;;;;;5048774;28;20240;-71
2022/09/25 07:48:22;;;;;;;7.60;7.00;;;14.20;99.90;;;;;;5043251;28;20204;-70
2022/09/25 07:50:49;;;;;;;7.00;6.37;;;14.20;99.90;;;;;;5050302;28;20216;-70
2022/09/25 07:53:17;;;;;;;7.20;6.60;;;14.20;99.90;;;;;;5050554;28;20204;-70
2022/09/25 07:55:45;;;;;;;6.77;6.17;;;14.30;99.90;;;;;;5051833;28;20200;-70
2022/09/25 07:58:12;;;;;;;6.23;5.77;;;14.20;99.90;;;;;;5036881;28;20282;-70
2022/09/25 08:00:39;;;;;;;7.40;6.73;;;14.20;99.90;;;;;;5041034;28;20208;-72
2022/09/25 08:03:10;;;;;;;6.83;6.23;;;14.30;99.90;;;;;;5040902;28;20213;-70
2022/09/25 08:05:36;;;;;;;9.63;6.60;;;14.30;99.90;;;;;;5048103;28;20291;-71
2022/09/25 08:08:03;;;;;;;6.77;6.27;;;14.30;99.90;;;;;;5047084;28;20213;-71
2022/09/25 08:10:30;;;;;;;6.90;6.40;;;14.30;99.90;;;;;;5040895;28;20204;-71
2022/09/25 08:12:59;;;;;;;7.50;6.03;;;14.30;99.90;;;;;;5038933;28;20710;-70
2022/09/25 08:15:25;;;;;;;6.50;6.03;;;14.30;99.90;;;;;;5041296;28;20207;-73
2022/09/25 08:17:52;;;;;;;7.80;7.30;;;14.30;99.90;;;;;;5041403;28;20845;-73
2022/09/25 08:20:19;;;;;;;7.73;7.13;;;14.40;99.90;;;;;;5042975;28;20208;-72
2022/09/25 08:22:46;;;;;;;7.70;6.80;;;14.40;99.90;;;;;;5047274;28;20211;-71
2022/09/25 08:25:13;;;;;;;6.93;6.33;;;14.40;99.90;;;;;;5045720;28;20228;-71
2022/09/25 08:27:40;;;;;;;7.90;6.87;;;14.50;99.90;;;;;;5034366;28;20266;-71
2022/09/25 08:30:11;;;;;;;7.83;7.03;;;14.60;99.90;;;;;;5027896;28;20205;-71
2022/09/25 08:32:38;;;;;;;7.50;6.77;;;14.60;99.90;;;;;;5040347;28;20200;-71
2022/09/25 08:35:05;;;;;;;7.67;6.87;;;14.80;99.90;;;;;;5047743;28;20215;-72
2022/09/25 08:37:32;;;;;;;8.00;7.20;;;14.90;99.90;;;;;;5047039;28;20429;-71
2022/09/25 08:39:59;;;;;;;7.00;6.40;;;15.00;99.90;;;;;;5047439;28;20214;-71
2022/09/25 08:42:31;;;;;;;7.77;7.03;;;15.00;99.90;;;;;;5038138;28;20209;-71
2022/09/25 08:50:36;;;;;;;7.20;6.47;;;15.10;99.90;;;;;;5034555;28;20197;-71
2022/09/25 08:53:07;;;;;;;7.80;7.10;;;15.20;99.90;;;;;;5038630;28;20204;-71
2022/09/25 08:58:24;;;;;;;7.63;6.93;;;15.20;99.90;;;;;;5035234;28;20320;-71
2022/09/25 09:00:53;;;;;;;7.83;7.13;;;15.20;99.90;;;;;;5036460;28;20245;-72
2022/09/25 09:03:24;;;;;;;7.37;6.67;;;15.20;99.90;;;;;;5040551;28;20660;-71
2022/09/25 09:05:55;;;;;;;7.47;6.83;;;15.20;99.90;;;;;;5032048;28;20212;-72
2022/09/25 09:08:24;;;;;;;7.90;6.87;;;15.20;99.90;;;;;;5046693;28;20204;-72
2022/09/25 09:10:56;;;;;;;7.27;6.67;;;15.20;99.90;;;;;;5046932;28;20235;-71
2022/09/25 09:13:28;;;;;;;7.27;6.70;;;15.20;99.90;;;;;;5030136;28;20616;-71
2022/09/25 09:16:01;;;;;;;8.43;6.97;;;15.20;99.90;;;;;;5046517;28;20195;-72
2022/09/25 09:18:31;;;;;;;8.77;7.20;;;15.30;99.90;;;;;;5046637;28;20204;-72
2022/09/25 09:21:04;;;;;;;7.87;7.07;;;15.30;99.90;;;;;;5030561;28;20326;-72
2022/09/25 09:23:34;;;;;;;7.30;6.77;;;15.40;99.90;;;;;;5035842;28;20407;-72
2022/09/25 09:26:03;;;;;;;7.13;6.63;;;15.40;99.90;;;;;;5050929;28;20235;-72
2022/09/25 09:29:13;;;;;;;7.63;6.93;;;15.50;99.90;;;;;;5045969;28;20674;-72
2022/09/25 09:31:51;;;;;;;7.90;7.20;;;15.50;99.90;;;;;;5046021;28;20211;-71
2022/09/25 09:34:36;;;;;;;8.03;7.23;;;15.50;99.90;;;;;;5045846;28;20282;-71
2022/09/25 09:37:10;;;;;;;7.67;6.90;;;15.60;99.90;;;;;;5040268;28;20216;-72
2022/09/25 09:39:42;;;;;;;7.43;6.83;;;15.60;99.90;;;;;;5026005;28;20201;-72
2022/09/25 09:42:19;;;;;;;9.30;7.03;;;15.70;99.90;;;;;;5025807;28;20574;-72
2022/09/25 09:44:56;;;;;;;7.77;7.10;;;15.70;99.90;;;;;;5041137;28;20689;-72
2022/09/25 09:47:42;;;;;;;8.03;7.33;;;15.80;99.90;;;;;;5046042;28;20203;-71
2022/09/25 09:50:25;;;;;;;8.80;8.00;;;15.80;99.90;;;;;;5030381;28;20197;-72
2022/09/25 09:53:00;;;;;;;7.37;6.87;;;15.90;99.90;;;;;;5026465;28;20212;-72
2022/09/25 09:55:35;;;;;;;7.73;7.00;;;16.00;99.90;;;;;;5044351;28;20208;-72
2022/09/25 09:58:06;;;;;;;8.03;6.93;;;16.10;99.90;;;;;;5047339;28;20196;-72
2022/09/25 10:00:34;;;;;;;7.03;6.43;;;16.20;99.90;;;;;;5047680;28;20327;-72
2022/09/25 10:03:05;;;;;;;7.97;7.20;;;16.20;99.90;;;;;;5040668;28;20224;-72
2022/09/25 10:05:39;;;;;;;7.47;6.97;;;16.20;99.90;;;;;;5037577;28;20220;-72
2022/09/25 10:08:05;;;;;;;7.53;6.80;;;16.30;99.90;;;;;;5027880;28;20200;-72
2022/09/25 10:10:36;;;;;;;7.77;7.17;;;16.30;99.90;;;;;;5028001;28;20215;-72
2022/09/25 10:13:06;;;;;;;7.17;6.63;;;16.30;99.90;;;;;;5028106;28;20236;-70
2022/09/25 10:15:35;;;;;;;6.83;6.33;;;16.40;99.90;;;;;;5032093;28;20277;-71
2022/09/25 10:18:03;;;;;;;7.43;6.90;;;16.50;99.90;;;;;;5047883;28;20215;-71
2022/09/25 10:20:38;;;;;;;7.43;6.83;;;16.60;99.90;;;;;;5047804;28;20204;-72
2022/09/25 10:23:15;;;;;;;7.23;6.63;;;16.70;99.90;;;;;;5047674;28;20239;-72
2022/09/25 10:25:41;;;;;;;7.97;7.37;;;16.90;99.90;;;;;;5063491;28;20565;-71
2022/09/25 10:28:25;;;;;;;7.77;7.00;;;17.00;99.90;;;;;;5038501;28;20256;-71
2022/09/25 10:30:54;;;;;;;6.97;6.47;;;16.90;99.90;;;;;;5027292;28;20203;-71
2022/09/25 10:33:22;;;;;;;7.53;6.93;;;16.90;99.90;;;;;;5033369;28;20207;-72
2022/09/25 10:35:53;;;;;;;7.43;6.77;;;17.00;99.90;;;;;;5047676;28;20222;-71
2022/09/25 10:38:34;;;;;;;7.10;6.60;;;17.00;99.90;;;;;;5047512;28;20800;-70
2022/09/25 10:41:04;;;;;;;7.87;6.70;;;17.00;99.90;;;;;;5047471;28;20192;-71
2022/09/25 10:43:31;;;;;;;7.90;7.10;;;17.10;99.90;;;;;;5047259;28;20197;-72
2022/09/25 10:46:12;;;;;;;7.17;6.47;;;17.20;99.90;;;;;;5047567;28;20231;-71
2022/09/25 10:51:26;;;;;;;7.03;6.43;;;17.20;99.90;;;;;;5040698;28;20280;-71
2022/09/25 10:54:09;;;;;;;7.03;6.40;;;17.30;99.90;;;;;;5039567;28;20212;-71
2022/09/25 10:56:37;;;;;;;7.00;6.50;;;17.20;99.90;;;;;;5058515;28;20502;-71
2022/09/25 10:59:13;;;;;;;7.10;6.53;;;17.30;99.90;;;;;;5047245;28;20792;-71
2022/09/25 11:01:42;;;;;;;6.60;6.00;;;17.30;99.90;;;;;;5046211;28;20807;-71
2022/09/25 11:04:15;;;;;;;7.73;7.13;;;17.40;99.90;;;;;;5047224;28;20200;-71
2022/09/25 11:06:47;;;;;;;7.13;6.53;;;17.40;99.90;;;;;;5047136;28;20220;-71
2022/09/25 11:09:17;;;;;;;8.33;7.10;;;17.50;99.90;;;;;;5047176;28;20808;-71
2022/09/25 11:11:46;;;;;;;7.40;6.90;;;17.50;99.90;;;;;;5050198;28;20200;-71
2022/09/25 11:14:23;;;;;;;7.37;6.67;;;17.50;99.90;;;;;;5047077;28;20197;-72
2022/09/25 11:16:56;;;;;;;7.83;7.23;;;17.50;99.90;;;;;;5047855;28;20296;-71
2022/09/25 11:19:28;;;;;;;7.13;6.63;;;17.50;99.90;;;;;;5051629;28;20204;-71
2022/09/25 11:22:06;;;;;;;7.13;6.63;;;17.60;99.90;;;;;;5050969;28;20212;-72
2022/09/25 11:24:48;;;;;;;6.77;6.27;;;17.60;99.90;;;;;;5057111;28;20327;-71
2022/09/25 11:27:20;;;;;;;6.53;6.03;;;17.60;99.90;;;;;;5066082;28;20220;-72
2022/09/25 11:29:57;;;;;;;6.93;6.33;;;17.70;99.90;;;;;;5050879;28;20211;-71
2022/09/25 11:32:29;;;;;;;6.70;6.10;;;17.70;99.90;;;;;;5050868;28;20241;-72
2022/09/25 11:35:14;;;;;;;6.17;5.77;;;17.80;99.90;;;;;;5047657;28;20192;-71
2022/09/25 11:37:50;;;;;;;6.57;5.97;;;18.10;99.90;;;;;;5030337;28;20670;-71
2022/09/25 11:43:20;;;;;;;6.17;5.60;;;18.50;99.90;;;;;;5033200;28;20403;-71
2022/09/25 11:45:51;;;;;;;5.70;5.30;;;18.50;99.90;;;;;;5050505;28;20228;-71
2022/09/25 11:48:26;;;;;;;6.27;5.80;;;18.50;99.90;;;;;;5040167;28;20192;-71
2022/09/25 11:51:14;;;;;;;5.80;5.40;;;18.60;99.90;;;;;;5050613;28;20188;-72
2022/09/25 11:53:52;;;;;;;5.90;5.53;;;18.70;99.90;;;;;;5050347;28;20197;-72
2022/09/25 11:56:28;;;;;;;5.67;5.13;;;18.90;99.90;;;;;;5050256;28;20196;-72
2022/09/25 11:59:20;;;;;;;5.17;4.77;;;19.10;99.90;;;;;;5050451;28;20207;-72
2022/09/25 12:01:52;;;;;;;5.30;4.90;;;19.30;99.90;;;;;;5043545;28;20226;-72
2022/09/25 12:04:54;;;;;;;5.30;4.90;;;19.40;99.90;;;;;;5050605;28;20192;-72
2022/09/25 12:07:40;;;;;;;5.53;4.93;;;19.60;99.90;;;;;;5045937;28;20243;-72
2022/09/25 12:10:28;;;;;;;5.82;5.40;;;19.80;99.90;;;;;;5050520;28;20203;-72
2022/09/25 12:12:59;;;;;;;5.23;4.90;;;20.00;99.90;;;;;;5049739;28;20224;-72
2022/09/25 12:15:39;;;;;;;5.30;4.83;;;20.10;99.90;;;;;;5050158;28;20199;-72
2022/09/25 12:18:18;;;;;;;4.43;4.22;;;20.30;99.90;;;;;;5049913;28;20674;-72
2022/09/25 12:20:52;;;;;;;5.55;5.15;;;20.40;99.90;;;;;;5048909;28;20572;-72
2022/09/25 12:23:27;;;;;;;5.20;4.90;;;20.50;99.90;;;;;;5049173;28;20236;-72
2022/09/25 12:26:24;;;;;;;5.22;4.75;;;20.50;99.90;;;;;;5041445;28;20236;-72
2022/09/25 12:29:06;;;;;;;4.95;4.65;;;20.40;99.90;;;;;;5029880;28;20549;-72
2022/09/25 12:31:45;;;;;;;5.70;5.20;;;20.10;99.90;;;;;;5029925;28;20201;-72
2022/09/25 12:34:25;;;;;;;5.60;5.05;;;19.80;99.90;;;;;;5030082;28;20199;-72
2022/09/25 12:36:57;;;;;;;5.97;5.18;;;19.60;99.90;;;;;;5038683;28;20200;-72
2022/09/25 12:39:31;;;;;;;5.00;4.67;;;19.60;99.90;;;;;;5049652;28;20196;-72
2022/09/25 12:42:09;;;;;;;5.67;5.17;;;19.50;99.90;;;;;;5049881;28;20202;-72
2022/09/25 12:44:46;;;;;;;5.93;5.40;;;19.60;99.90;;;;;;5049525;28;20196;-72
2022/09/25 12:47:19;;;;;;;5.20;4.80;;;19.50;99.90;;;;;;5049294;28;20259;-72
2022/09/25 12:49:49;;;;;;;5.17;4.80;;;19.50;99.90;;;;;;5035241;28;20197;-72
2022/09/25 12:52:21;;;;;;;5.20;4.83;;;19.70;99.90;;;;;;5029196;28;20707;-73
2022/09/25 12:54:54;;;;;;;5.53;5.17;;;20.00;99.90;;;;;;5050931;28;20208;-72
2022/09/25 12:57:26;;;;;;;6.03;5.43;;;20.10;99.90;;;;;;5061562;28;20246;-72
2022/09/25 12:59:57;;;;;;;5.70;5.30;;;20.10;99.90;;;;;;5047455;28;20196;-72
2022/09/25 13:02:31;;;;;;;5.37;5.00;;;20.10;99.90;;;;;;5029257;28;20202;-72
2022/09/25 13:05:06;;;;;;;5.05;4.75;;;20.20;99.90;;;;;;5029465;28;20193;-72
2022/09/25 13:07:38;;;;;;;5.90;5.20;;;20.20;99.90;;;;;;5030571;28;20254;-71
2022/09/25 13:10:25;;;;;;;6.15;5.65;;;20.20;99.90;;;;;;5048999;28;20196;-71
2022/09/25 13:12:57;;;;;;;5.30;5.00;;;20.10;99.90;;;;;;5037497;28;20260;-71
2022/09/25 13:15:28;;;;;;;5.50;5.10;;;20.00;99.90;;;;;;5032223;28;20200;-72
2022/09/25 13:17:56;;;;;;;5.70;5.40;;;19.90;99.90;;;;;;5041975;28;20212;-71
2022/09/25 13:20:47;;;;;;;5.70;5.30;;;19.80;99.90;;;;;;5046913;28;20236;-71